Time;durP1;ratioP1;P1;durP2;ratioP2;P2;SDS_P1;SDS_P2;PMS_P1;PMS_P2;Temp;Humidity;BMP_temperature;BMP_pressure;BME280_temperature;BME280_humidity;BME280_pressure;Samples;Min_cycle;Max_cycle;Signal;HPM_P1;HPM_P2
2021/11/06 00:00:13;;;;;;;;;23.00;21.00;;;;;14.01;45.26;99693.44;6176233;28;99496;-67
2021/11/06 00:03:18;;;;;;;;;20.60;18.00;;;;;13.93;45.47;99696.44;6158746;28;99513;-67
2021/11/06 00:06:21;;;;;;;;;22.40;20.60;;;;;14.01;44.98;99693.44;6182403;28;98043;-67
2021/11/06 00:09:25;;;;;;;;;21.80;19.00;;;;;14.04;45.35;99688.38;6178814;28;97108;-70
2021/11/06 00:12:29;;;;;;;;;24.75;20.00;;;;;14.08;45.31;99692.31;6180025;28;97495;-69
2021/11/06 00:15:33;;;;;;;;;24.60;23.00;;;;;14.04;44.93;99687.56;6170475;28;97539;-67
2021/11/06 00:18:37;;;;;;;;;22.75;20.75;;;;;14.10;44.94;99697.50;6185189;28;97483;-70
2021/11/06 00:21:41;;;;;;;;;23.00;21.00;;;;;14.11;45.01;99697.28;6170887;28;98512;-69
2021/11/06 00:24:44;;;;;;;;;22.50;22.00;;;;;14.10;44.91;99708.34;6183036;28;97002;-67
2021/11/06 00:27:47;;;;;;;;;27.00;22.00;;;;;14.09;44.84;99703.97;6165606;28;97485;-67
2021/11/06 00:30:51;;;;;;;;;19.00;19.00;;;;;14.09;44.75;99712.13;6176806;28;97691;-70
2021/11/06 00:33:55;;;;;;;;;23.00;22.00;;;;;14.06;44.83;99716.13;6183048;28;97295;-68
2021/11/06 00:36:58;;;;;;;;;23.50;21.00;;;;;14.00;44.95;99714.28;6182242;28;98164;-68
2021/11/06 00:40:02;;;;;;;;;23.60;22.60;;;;;13.97;44.92;99716.63;6175657;28;97148;-69
2021/11/06 00:43:05;;;;;;;;;22.00;20.40;;;;;13.93;45.37;99718.13;6179135;28;96699;-69
2021/11/06 00:46:08;;;;;;;;;20.60;19.60;;;;;13.91;45.16;99717.50;6187548;28;97525;-68
2021/11/06 00:49:13;;;;;;;;;19.20;19.00;;;;;13.83;45.48;99715.91;6165008;28;96838;-68
2021/11/06 00:52:16;;;;;;;;;23.00;21.00;;;;;13.75;45.84;99714.31;6184521;28;96691;-69
2021/11/06 00:55:20;;;;;;;;;23.20;20.20;;;;;13.61;46.33;99712.78;6184132;28;98375;-68
2021/11/06 00:58:24;;;;;;;;;23.40;22.40;;;;;13.58;46.33;99720.53;6187958;28;97334;-70
2021/11/06 01:01:27;;;;;;;;;21.50;20.00;;;;;13.54;46.50;99730.94;6175361;28;99164;-68
2021/11/06 01:04:32;;;;;;;;;22.60;20.40;;;;;13.53;46.46;99737.44;6183883;28;96706;-71
2021/11/06 01:07:36;;;;;;;;;23.60;21.60;;;;;13.55;46.63;99737.19;6172204;28;96860;-69
2021/11/06 01:10:39;;;;;;;;;24.40;22.80;;;;;13.49;46.52;99740.81;6189293;28;96536;-70
2021/11/06 01:13:43;;;;;;;;;26.40;23.00;;;;;13.47;46.56;99738.31;6184616;28;97029;-67
2021/11/06 01:16:49;;;;;;;;;23.00;22.25;;;;;13.45;46.65;99730.41;6172931;28;97782;-67
2021/11/06 01:19:54;;;;;;;;;21.20;20.20;;;;;13.29;46.85;99730.91;6188416;28;96882;-66
2021/11/06 01:22:57;;;;;;;;;25.00;22.00;;;;;13.28;46.92;99729.28;6178365;28;99648;-67
2021/11/06 01:26:02;;;;;;;;;21.67;18.67;;;;;13.18;47.37;99728.09;6186325;28;96838;-66
2021/11/06 01:29:06;;;;;;;;;25.40;22.00;;;;;13.14;47.38;99722.31;6193808;28;99129;-67
2021/11/06 01:32:09;;;;;;;;;23.50;20.75;;;;;13.17;47.17;99729.13;6164236;28;97448;-67
2021/11/06 01:35:15;;;;;;;;;24.20;23.00;;;;;13.12;47.38;99724.38;6176338;28;97232;-67
2021/11/06 01:38:18;;;;;;;;;25.00;22.40;;;;;13.13;47.55;99727.91;6161852;28;96891;-66
2021/11/06 01:41:21;;;;;;;;;25.00;21.00;;;;;13.14;47.44;99721.47;6189617;28;97467;-65
2021/11/06 01:44:25;;;;;;;;;23.00;21.60;;;;;13.20;47.45;99723.28;6181921;28;98378;-67
2021/11/06 01:47:28;;;;;;;;;24.00;20.75;;;;;13.18;47.53;99731.66;6182347;28;97487;-66
2021/11/06 01:50:33;;;;;;;;;23.20;20.20;;;;;13.11;47.54;99728.13;6176123;28;97960;-66
2021/11/06 01:53:36;;;;;;;;;22.00;20.20;;;;;13.09;47.55;99737.50;6194062;28;97453;-66
2021/11/06 01:56:40;;;;;;;;;25.00;22.00;;;;;13.05;47.65;99726.25;6182971;28;97958;-66
2021/11/06 01:59:45;;;;;;;;;23.80;22.20;;;;;12.99;47.82;99736.09;6153920;28;96989;-67
2021/11/06 02:02:49;;;;;;;;;24.00;21.40;;;;;12.98;47.86;99734.44;6173646;28;97493;-67
2021/11/06 02:05:54;;;;;;;;;24.00;20.00;;;;;12.96;48.02;99736.50;6184193;28;97411;-67
2021/11/06 02:08:57;;;;;;;;;25.00;22.00;;;;;12.97;48.02;99734.63;6182137;28;97580;-66
2021/11/06 02:12:00;;;;;;;;;23.50;20.50;;;;;12.98;47.90;99736.31;6185521;28;96785;-66
2021/11/06 02:15:04;;;;;;;;;21.20;19.80;;;;;12.95;47.89;99725.91;6184438;28;97175;-65
2021/11/06 02:18:08;;;;;;;;;23.40;21.00;;;;;12.98;47.97;99725.47;6188872;28;97243;-66
2021/11/06 02:21:13;;;;;;;;;23.00;21.00;;;;;12.98;47.82;99726.31;6162645;28;97905;-66
2021/11/06 02:24:16;;;;;;;;;23.40;20.00;;;;;13.00;48.03;99734.19;6186889;28;96910;-67
2021/11/06 02:27:21;;;;;;;;;21.00;20.00;;;;;13.03;47.79;99734.63;6159473;28;97211;-66
2021/11/06 02:30:24;;;;;;;;;25.00;21.00;;;;;13.11;47.57;99730.84;6188894;28;97488;-67
2021/11/06 02:33:28;;;;;;;;;20.25;18.00;;;;;13.09;47.71;99732.09;6187056;28;97780;-67
2021/11/06 02:36:33;;;;;;;;;21.80;20.00;;;;;13.09;47.52;99721.25;6183567;28;96618;-66
2021/11/06 02:39:36;;;;;;;;;22.40;20.00;;;;;13.08;47.52;99730.41;6173931;28;96505;-66
2021/11/06 02:42:41;;;;;;;;;22.20;21.00;;;;;13.10;47.48;99739.97;6188118;28;97289;-66
2021/11/06 02:45:44;;;;;;;;;22.00;20.00;;;;;12.85;47.44;99704.72;6170381;28;96897;-67
2021/11/06 02:48:47;;;;;;;;;22.60;18.00;;;;;13.08;47.34;99736.66;6151835;28;100181;-65
2021/11/06 02:51:52;;;;;;;;;23.00;19.50;;;;;13.06;47.24;99743.34;6169238;28;97590;-66
2021/11/06 02:54:55;;;;;;;;;25.25;20.25;;;;;13.09;47.40;99741.03;6183380;28;96752;-67
2021/11/06 02:57:59;;;;;;;;;18.00;17.00;;;;;13.00;47.66;99735.03;6181627;28;98904;-65
2021/11/06 03:01:03;;;;;;;;;21.00;19.25;;;;;12.96;47.69;99735.69;6169090;28;96986;-65
2021/11/06 03:04:09;;;;;;;;;20.00;20.00;;;;;12.94;47.82;99737.78;6184059;28;98518;-67
2021/11/06 03:07:13;;;;;;;;;22.25;21.00;;;;;12.87;47.80;99745.94;6185867;28;96746;-67
2021/11/06 03:10:18;;;;;;;;;24.00;22.00;;;;;12.89;47.75;99746.56;6187837;28;97477;-66
2021/11/06 03:13:22;;;;;;;;;26.00;23.00;;;;;12.89;47.69;99751.97;6187090;28;97574;-67
2021/11/06 03:16:27;;;;;;;;;25.00;22.00;;;;;12.93;47.40;99755.91;6188800;28;97482;-66
2021/11/06 03:19:31;;;;;;;;;24.00;21.60;;;;;12.91;47.71;99755.28;6186753;28;97097;-66
2021/11/06 03:22:36;;;;;;;;;19.00;18.00;;;;;12.90;47.56;99752.81;6166763;28;97412;-66
2021/11/06 03:25:39;;;;;;;;;24.00;20.00;;;;;12.93;47.55;99750.50;6175090;28;97521;-66
2021/11/06 03:28:42;;;;;;;;;17.75;16.75;;;;;13.01;47.02;99766.47;6186092;28;97522;-65
2021/11/06 03:31:46;;;;;;;;;21.50;17.25;;;;;13.00;47.00;99753.97;6181270;28;97435;-66
2021/11/06 03:34:50;;;;;;;;;16.75;16.75;;;;;13.00;46.86;99750.44;6185819;28;97593;-66
2021/11/06 03:37:54;;;;;;;;;19.20;16.00;;;;;12.97;46.86;99764.41;6153733;28;98086;-67
2021/11/06 03:40:58;;;;;;;;;20.25;17.25;;;;;12.98;46.94;99766.09;6174562;28;96562;-66
2021/11/06 03:44:01;;;;;;;;;17.00;16.20;;;;;12.90;46.84;99769.84;6186557;28;98420;-66
2021/11/06 03:47:05;;;;;;;;;17.00;16.00;;;;;12.89;46.85;99770.91;6183755;28;97850;-66
2021/11/06 03:50:11;;;;;;;;;17.00;16.60;;;;;12.87;46.94;99783.00;6175848;28;97517;-67
2021/11/06 03:53:15;;;;;;;;;16.00;15.00;;;;;12.80;47.00;99776.78;6154074;28;98148;-66
2021/11/06 03:56:19;;;;;;;;;15.60;14.60;;;;;12.77;46.92;99783.44;6177055;28;97531;-67
2021/11/06 03:59:22;;;;;;;;;14.60;14.60;;;;;12.69;46.90;99785.56;6182339;28;97861;-66
2021/11/06 04:02:29;;;;;;;;;15.60;14.60;;;;;12.62;47.13;99780.16;6179393;28;98572;-66
2021/11/06 04:05:32;;;;;;;;;16.00;14.40;;;;;12.51;47.43;99783.56;6174081;28;96988;-66
2021/11/06 04:08:37;;;;;;;;;14.60;14.00;;;;;12.51;47.24;99778.94;6151430;28;98411;-67
2021/11/06 04:11:41;;;;;;;;;16.00;14.40;;;;;12.53;47.23;99786.84;6186545;28;97415;-66
2021/11/06 04:14:44;;;;;;;;;15.33;14.33;;;;;12.47;47.34;99785.81;6169365;28;98361;-66
2021/11/06 04:17:47;;;;;;;;;14.00;14.00;;;;;12.42;47.43;99796.44;6185918;28;97466;-66
2021/11/06 04:20:51;;;;;;;;;13.25;12.25;;;;;12.43;47.35;99791.88;6186535;28;98449;-66
2021/11/06 04:23:55;;;;;;;;;15.00;13.40;;;;;12.45;47.21;99798.75;6164859;28;97430;-67
2021/11/06 04:26:59;;;;;;;;;13.75;13.00;;;;;12.44;47.19;99796.25;6181625;28;97472;-67
2021/11/06 04:30:02;;;;;;;;;13.00;12.60;;;;;12.40;47.27;99795.00;6179748;28;96741;-65
2021/11/06 04:33:06;;;;;;;;;16.40;14.00;;;;;12.32;47.35;99806.03;6185102;28;97027;-65
2021/11/06 04:36:09;;;;;;;;;16.80;14.00;;;;;12.16;47.85;99796.50;6184000;28;96689;-65
2021/11/06 04:39:13;;;;;;;;;15.00;14.00;;;;;12.15;47.74;99806.50;6174550;28;97954;-66
2021/11/06 04:42:17;;;;;;;;;17.00;15.00;;;;;12.18;47.70;99813.34;6186208;28;96987;-65
2021/11/06 04:45:20;;;;;;;;;16.80;14.80;;;;;12.19;47.64;99812.31;6182432;28;96814;-65
2021/11/06 04:48:23;;;;;;;;;15.25;14.00;;;;;12.19;47.63;99814.16;6184851;28;96927;-65
2021/11/06 06:41:47;;;;;;;;;11.00;10.00;;;;;13.15;45.69;99904.50;7305541;22;97658;-65
2021/11/06 06:44:50;;;;;;;;;12.00;10.00;;;;;13.30;45.51;99905.91;6213059;28;96569;-66
2021/11/06 06:47:54;;;;;;;;;12.00;12.00;;;;;13.48;44.73;99912.53;6210581;28;96667;-65
2021/11/06 06:50:57;;;;;;;;;11.00;11.00;;;;;13.59;44.46;99906.41;6208596;28;97072;-66
2021/11/06 06:54:01;;;;;;;;;11.00;10.00;;;;;13.77;44.38;99904.66;6210510;28;96612;-65
2021/11/06 06:57:06;;;;;;;;;10.00;9.50;;;;;13.96;43.72;99899.31;6212282;28;97003;-66
2021/11/06 07:00:12;;;;;;;;;10.50;9.00;;;;;14.13;43.37;99914.81;6192062;28;97058;-66
2021/11/06 07:03:15;;;;;;;;;10.00;10.00;;;;;14.36;43.13;99914.28;6190521;28;97077;-65
2021/11/06 07:06:19;;;;;;;;;12.00;11.00;;;;;14.45;42.84;99918.38;6207759;28;97155;-69
2021/11/06 07:09:23;;;;;;;;;11.60;10.60;;;;;14.58;42.79;99925.56;6193529;28;98405;-67
2021/11/06 07:12:29;;;;;;;;;14.00;11.75;;;;;14.66;42.67;99928.81;6207658;28;97574;-67
2021/11/06 07:15:33;;;;;;;;;12.00;11.00;;;;;14.66;42.42;99915.25;6170990;28;97858;-66
2021/11/06 07:18:36;;;;;;;;;14.50;12.00;;;;;14.82;42.10;99932.03;6205277;28;97160;-66
2021/11/06 07:21:39;;;;;;;;;11.00;10.00;;;;;15.00;41.72;99927.44;6190474;28;97035;-69
2021/11/06 07:24:43;;;;;;;;;11.80;9.80;;;;;15.16;41.24;99929.56;6187797;28;97913;-69
2021/11/06 07:27:48;;;;;;;;;13.00;12.00;;;;;15.36;41.03;99931.22;6208318;28;96908;-68
2021/11/06 07:30:51;;;;;;;;;11.00;10.00;;;;;15.46;40.94;99923.38;6191584;28;98341;-66
2021/11/06 07:33:55;;;;;;;;;13.25;12.00;;;;;15.53;40.86;99924.16;6180903;28;96950;-66
2021/11/06 07:36:58;;;;;;;;;13.00;12.00;;;;;15.57;40.90;99925.34;6193382;28;96630;-67
2021/11/06 07:40:03;;;;;;;;;12.00;11.00;;;;;15.63;40.66;99935.31;6172236;28;99427;-66
2021/11/06 07:43:07;;;;;;;;;11.00;10.00;;;;;15.75;40.36;99925.31;6187719;28;96452;-67
2021/11/06 07:46:11;;;;;;;;;11.80;10.40;;;;;15.88;39.88;99927.84;6198742;28;99664;-66
2021/11/06 07:49:15;;;;;;;;;11.00;9.00;;;;;16.43;40.80;99938.53;6190428;28;99552;-67
2021/11/06 07:52:18;;;;;;;;;13.00;10.00;;;;;16.91;39.42;99943.81;6210468;28;96534;-66
2021/11/06 07:55:21;;;;;;;;;8.00;8.00;;;;;17.17;37.40;99954.22;6171751;28;97101;-64
2021/11/06 07:58:26;;;;;;;;;11.00;9.00;;;;;17.36;37.24;99949.44;6203321;28;97009;-66
2021/11/06 08:01:30;;;;;;;;;9.00;9.00;;;;;17.66;36.56;99952.00;6181487;28;98671;-66
2021/11/06 08:04:33;;;;;;;;;11.00;10.00;;;;;18.09;35.76;99949.59;6210377;28;97447;-67
2021/11/06 08:07:37;;;;;;;;;10.00;8.40;;;;;19.41;33.66;99960.75;6210220;28;96887;-67
2021/11/06 08:10:40;;;;;;;;;11.00;10.00;;;;;21.32;30.77;99953.84;6184575;28;98556;-66
2021/11/06 08:13:44;;;;;;;;;10.80;10.00;;;;;23.40;27.98;99953.09;6187772;28;97638;-68
2021/11/06 08:16:49;;;;;;;;;13.50;11.00;;;;;25.16;24.88;99966.91;6208039;28;97436;-67
2021/11/06 08:19:52;;;;;;;;;12.00;10.60;;;;;26.73;23.63;99968.41;6204527;28;97181;-64
2021/11/06 08:23:00;;;;;;;;;13.00;11.40;;;;;27.96;21.73;99965.84;6189638;28;97321;-68
2021/11/06 08:26:04;;;;;;;;;10.20;10.20;;;;;28.73;20.59;99960.22;6204174;28;97442;-68
2021/11/06 08:29:09;;;;;;;;;12.00;11.00;;;;;29.78;19.97;99971.53;6210059;28;96928;-66
2021/11/06 08:32:12;;;;;;;;;13.00;12.00;;;;;30.21;18.80;99979.19;6184209;28;98521;-69
2021/11/06 08:35:18;;;;;;;;;11.00;10.00;;;;;30.80;18.64;99983.97;6208099;28;98118;-65
2021/11/06 08:38:21;;;;;;;;;12.00;11.00;;;;;31.28;18.14;99982.91;6192365;28;97799;-62
2021/11/06 08:41:25;;;;;;;;;11.00;11.00;;;;;31.70;17.49;99981.16;6209893;28;97403;-64
2021/11/06 08:44:29;;;;;;;;;13.00;12.00;;;;;32.03;17.15;99984.88;6206360;28;97479;-67
2021/11/06 08:47:33;;;;;;;;;8.60;8.60;;;;;32.32;16.72;99967.31;6191940;28;96860;-64
2021/11/06 08:50:36;;;;;;;;;8.20;8.00;;;;;32.61;16.00;99983.16;6193012;28;98122;-65
2021/11/06 08:53:40;;;;;;;;;9.00;8.80;;;;;32.88;16.22;99984.59;6211219;28;96975;-65
2021/11/06 08:56:44;;;;;;;;;8.40;8.00;;;;;32.76;15.51;99976.16;6193284;28;96862;-65
2021/11/06 08:59:53;;;;;;;;;7.00;7.00;;;;;32.62;16.15;99985.63;6185420;28;99270;-64
2021/11/06 09:02:56;;;;;;;;;7.00;6.40;;;;;32.57;16.01;99979.44;6195135;28;97118;-64
2021/11/06 09:06:00;;;;;;;;;8.00;8.00;;;;;32.25;15.98;99975.44;6197659;28;97837;-64
2021/11/06 09:09:05;;;;;;;;;8.00;7.00;;;;;32.56;15.77;99984.19;6215050;28;97111;-65
2021/11/06 09:12:10;;;;;;;;;9.00;9.00;;;;;32.43;15.85;99984.47;6212561;28;97898;-65
2021/11/06 09:15:15;;;;;;;;;8.80;8.00;;;;;32.32;15.82;99988.81;6211344;28;96825;-64
2021/11/06 09:18:18;;;;;;;;;9.50;8.50;;;;;32.10;15.66;99984.38;6213673;28;97468;-66
2021/11/06 09:21:24;;;;;;;;;8.75;8.75;;;;;32.35;15.86;99990.97;6213957;28;97435;-63
2021/11/06 09:24:27;;;;;;;;;9.00;9.00;;;;;32.23;15.57;99981.34;6216190;28;98093;-64
2021/11/06 09:27:31;;;;;;;;;7.00;7.00;;;;;32.27;15.54;99980.66;6208170;28;97159;-65
2021/11/06 09:30:36;;;;;;;;;9.00;8.80;;;;;32.45;15.57;99985.75;6215019;28;96801;-64
2021/11/06 09:33:40;;;;;;;;;9.00;6.75;;;;;32.26;15.34;99977.03;6210892;28;97032;-66
2021/11/06 09:36:43;;;;;;;;;5.60;5.00;;;;;32.10;15.18;99984.38;6210958;28;97462;-65
2021/11/06 09:39:46;;;;;;;;;8.00;7.00;;;;;31.96;15.21;99986.59;6214807;28;96506;-62
2021/11/06 09:42:50;;;;;;;;;7.00;7.00;;;;;31.78;15.46;99992.25;6214723;28;97356;-63
2021/11/06 09:45:55;;;;;;;;;6.00;6.00;;;;;31.93;15.38;99973.31;6215319;28;97258;-62
2021/11/06 09:48:58;;;;;;;;;4.00;4.00;;;;;31.96;15.10;99981.81;6215503;28;96482;-64
2021/11/06 09:52:02;;;;;;;;;5.60;5.00;;;;;32.21;14.95;99978.06;6215168;28;97462;-66
2021/11/06 09:55:07;;;;;;;;;5.00;4.00;;;;;32.12;14.91;99980.09;6212441;28;96539;-62
2021/11/06 09:58:10;;;;;;;;;5.00;5.00;;;;;31.96;15.02;99969.84;6196628;28;99673;-63
2021/11/06 10:01:15;;;;;;;;;5.00;4.00;;;;;31.66;15.14;99969.84;6197329;28;98530;-64
2021/11/06 10:04:18;;;;;;;;;4.00;4.00;;;;;31.57;15.19;99957.09;6215267;28;96560;-63
2021/11/06 10:07:24;;;;;;;;;5.50;4.50;;;;;31.67;15.29;99960.31;6213639;28;97413;-65
2021/11/06 10:10:37;;;;;;;;;4.00;4.00;;;;;31.59;15.13;99957.56;6191860;28;98231;-65
2021/11/06 10:13:52;;;;;;;;;6.00;4.00;;;;;31.94;15.11;99961.00;6202185;28;96941;-63
2021/11/06 10:16:59;;;;;;;;;3.80;3.00;;;;;32.27;14.81;99955.53;6194182;28;97410;-63
2021/11/06 10:20:21;;;;;;;;;5.00;4.00;;;;;32.45;14.45;99949.47;6213884;28;97414;-65
2021/11/06 10:23:29;;;;;;;;;6.00;5.00;;;;;32.46;14.45;99955.88;6209430;28;96566;-64
2021/11/06 10:26:33;;;;;;;;;5.00;4.00;;;;;32.38;14.46;99943.63;6190387;28;96836;-65
2021/11/06 10:29:39;;;;;;;;;4.00;4.00;;;;;31.13;15.21;99941.69;6213261;28;96827;-65
2021/11/06 10:32:45;;;;;;;;;3.00;3.00;;;;;30.22;16.15;99942.69;6195648;28;97790;-65
2021/11/06 10:35:51;;;;;;;;;4.00;4.00;;;;;29.48;16.49;99911.28;6207854;28;97618;-65
2021/11/06 10:39:09;;;;;;;;;4.00;4.00;;;;;28.83;16.88;99926.63;6214455;28;97484;-65
2021/11/06 10:42:15;;;;;;;;;3.00;3.00;;;;;28.15;18.01;99915.03;6211432;28;97457;-67
2021/11/06 10:45:21;;;;;;;;;3.00;2.50;;;;;27.88;18.80;99913.91;6198070;28;100053;-64
2021/11/06 10:48:30;;;;;;;;;3.00;3.00;;;;;27.06;18.74;99913.91;6220774;28;97377;-65
2021/11/06 10:51:33;;;;;;;;;3.00;3.00;;;;;27.38;18.52;99899.16;6183646;28;97798;-65
2021/11/06 10:55:02;;;;;;;;;5.00;4.25;;;;;27.07;18.89;99903.69;6198378;28;96589;-66
2021/11/06 10:58:18;;;;;;;;;3.00;3.00;;;;;26.22;19.99;99906.75;6213815;28;97486;-64
2021/11/06 11:01:24;;;;;;;;;4.00;3.00;;;;;26.14;20.09;99902.72;6207326;28;97164;-65
2021/11/06 11:04:37;;;;;;;;;3.00;3.00;;;;;26.51;19.23;99898.28;6214614;28;96989;-63
2021/11/06 11:07:41;;;;;;;;;3.00;3.00;;;;;26.96;19.40;99894.72;6214107;28;97264;-64
2021/11/06 11:10:45;;;;;;;;;3.00;3.00;;;;;27.36;18.46;99897.84;6209929;28;96862;-63
2021/11/06 11:13:51;;;;;;;;;3.00;3.00;;;;;27.77;18.41;99893.09;6185931;28;98006;-63
2021/11/06 11:16:57;;;;;;;;;2.00;2.00;;;;;28.06;17.86;99895.47;6214623;28;97007;-64
2021/11/06 11:20:01;;;;;;;;;4.00;3.00;;;;;27.32;18.85;99885.75;6187615;28;97352;-62
2021/11/06 11:23:14;;;;;;;;;3.00;2.60;;;;;26.37;19.45;99894.63;6191263;28;97121;-62
2021/11/06 11:26:19;;;;;;;;;4.00;4.00;;;;;25.64;20.53;99889.63;6212198;28;97146;-63
2021/11/06 11:29:28;;;;;;;;;4.00;3.40;;;;;25.14;20.57;99877.22;6196076;28;97610;-64
2021/11/06 11:32:32;;;;;;;;;3.75;3.00;;;;;24.71;21.31;99877.09;6177453;28;97360;-64
2021/11/06 11:35:39;;;;;;;;;3.00;3.00;;;;;24.16;22.10;99873.69;6191644;28;97365;-64
2021/11/06 11:38:43;;;;;;;;;5.25;4.25;;;;;24.93;20.96;99874.69;6191357;28;97366;-66
2021/11/06 11:42:12;;;;;;;;;4.00;3.00;;;;;25.50;20.49;99866.56;6177681;28;97368;-64
2021/11/06 11:45:25;;;;;;;;;5.00;3.40;;;;;26.07;19.90;99868.25;6173755;28;97487;-65
2021/11/06 11:48:30;;;;;;;;;4.00;4.00;;;;;26.67;19.59;99856.22;6192597;28;96895;-63
2021/11/06 11:51:35;;;;;;;;;5.00;4.00;;;;;26.98;19.20;99856.47;6171725;28;97441;-63
2021/11/06 11:54:57;;;;;;;;;2.00;2.00;;;;;27.32;19.21;99858.84;6193701;28;98399;-65
2021/11/06 11:58:09;;;;;;;;;4.75;3.75;;;;;27.41;18.53;99836.81;6192893;28;96931;-61
2021/11/06 12:01:19;;;;;;;;;3.40;2.00;;;;;27.82;18.33;99867.22;6186674;28;98193;-62
2021/11/06 12:04:22;;;;;;;;;3.60;3.00;;;;;28.00;18.01;99855.97;6191686;28;97492;-62
2021/11/06 12:07:27;;;;;;;;;4.00;4.00;;;;;28.08;18.54;99865.50;6193778;28;97324;-62
2021/11/06 12:10:34;;;;;;;;;4.00;3.50;;;;;27.87;18.07;99854.06;6211629;28;96845;-62
2021/11/06 12:13:40;;;;;;;;;3.00;3.00;;;;;27.69;18.50;99859.75;6191195;28;97793;-63
2021/11/06 12:16:47;;;;;;;;;3.00;3.00;;;;;27.75;18.17;99859.34;6192717;28;97451;-62
2021/11/06 12:19:52;;;;;;;;;3.00;3.00;;;;;27.43;18.49;99853.91;6207598;28;97265;-62
2021/11/06 12:22:56;;;;;;;;;4.00;3.00;;;;;27.01;18.72;99835.69;6211874;28;97454;-62
2021/11/06 12:26:12;;;;;;;;;4.00;4.00;;;;;26.67;18.99;99839.63;6209738;28;97397;-62
2021/11/06 12:29:36;;;;;;;;;3.00;2.60;;;;;26.43;19.32;99852.78;6210818;28;96629;-65
2021/11/06 12:32:56;;;;;;;;;3.80;3.00;;;;;26.38;19.57;99838.22;6192929;28;99138;-63
2021/11/06 12:36:17;;;;;;;;;4.00;3.00;;;;;25.85;20.44;99852.31;6209466;28;96866;-65
2021/11/06 12:39:46;;;;;;;;;4.20;3.00;;;;;25.65;20.17;99841.56;6204637;28;97490;-63
2021/11/06 12:43:11;;;;;;;;;5.00;5.00;;;;;25.55;20.33;99837.00;6175970;28;98309;-64
2021/11/06 12:46:20;;;;;;;;;5.00;4.00;;;;;25.42;20.40;99834.91;6214402;28;97154;-66
2021/11/06 12:49:28;;;;;;;;;4.00;3.00;;;;;25.38;20.59;99831.09;6197257;28;98103;-64
2021/11/06 12:52:42;;;;;;;;;3.00;3.00;;;;;25.12;20.96;99821.53;6213281;28;97791;-63
2021/11/06 12:55:46;;;;;;;;;3.00;3.00;;;;;25.03;21.09;99824.91;6205699;28;97408;-61
2021/11/06 12:59:04;;;;;;;;;3.00;2.00;;;;;24.97;21.22;99825.28;6214732;28;96397;-61
2021/11/06 13:02:07;;;;;;;;;3.00;3.00;;;;;24.96;20.84;99820.88;6176742;28;97066;-63
2021/11/06 13:05:10;;;;;;;;;4.75;4.75;;;;;24.69;21.79;99818.63;6205832;28;97419;-62
2021/11/06 13:08:16;;;;;;;;;3.60;3.00;;;;;24.47;21.76;99807.31;6212294;28;97238;-61
2021/11/06 13:11:21;;;;;;;;;4.00;3.67;;;;;24.35;22.00;99812.38;6210444;28;97122;-63
2021/11/06 13:14:48;;;;;;;;;5.00;5.00;;;;;24.22;22.13;99815.78;6206511;28;97424;-61
2021/11/06 13:17:51;;;;;;;;;4.00;3.75;;;;;24.17;21.77;99803.72;6215657;28;97835;-64
2021/11/06 13:20:56;;;;;;;;;3.50;3.50;;;;;24.02;22.21;99798.28;6215091;28;96939;-63
2021/11/06 13:23:59;;;;;;;;;3.00;3.00;;;;;23.71;22.82;99794.09;6215550;28;96422;-63
2021/11/06 13:27:04;;;;;;;;;3.40;3.00;;;;;23.58;22.56;99792.00;6211038;28;97515;-66
2021/11/06 13:30:36;;;;;;;;;3.00;3.00;;;;;23.14;23.50;99792.78;6214898;28;96680;-62
2021/11/06 13:33:43;;;;;;;;;3.00;3.00;;;;;22.92;23.36;99777.75;6193906;28;96687;-64
2021/11/06 13:36:46;;;;;;;;;6.40;6.00;;;;;22.84;23.99;99790.97;6215203;28;97383;-64
2021/11/06 13:40:01;;;;;;;;;4.00;4.00;;;;;22.80;23.74;99787.13;6205991;28;97188;-64
2021/11/06 13:43:14;;;;;;;;;4.00;4.00;;;;;22.75;23.51;99776.16;6213283;28;96721;-64
2021/11/06 13:46:36;;;;;;;;;2.00;2.00;;;;;22.75;23.62;99773.41;6215376;28;96703;-65
2021/11/06 13:49:43;;;;;;;;;3.00;3.00;;;;;22.72;23.56;99773.13;6198268;28;96550;-63
2021/11/06 13:52:54;;;;;;;;;4.00;4.00;;;;;22.60;24.29;99767.09;6214904;28;96657;-64
2021/11/06 13:55:58;;;;;;;;;3.00;2.00;;;;;22.57;23.90;99770.41;6195804;28;99549;-65
2021/11/06 13:59:02;;;;;;;;;3.00;3.00;;;;;22.56;23.63;99774.25;6213752;28;97427;-63
2021/11/06 14:02:09;;;;;;;;;3.00;3.00;;;;;22.38;24.00;99765.47;6212939;28;98190;-63
2021/11/06 14:05:14;;;;;;;;;4.00;4.00;;;;;22.14;23.99;99771.84;6178464;28;97174;-64
2021/11/06 14:08:18;;;;;;;;;4.60;4.00;;;;;21.99;24.51;99769.94;6213210;28;97520;-63
2021/11/06 14:11:21;;;;;;;;;3.00;3.00;;;;;21.93;24.45;99763.63;6192413;28;98903;-63
2021/11/06 14:14:27;;;;;;;;;4.20;4.20;;;;;21.87;24.59;99755.63;6213307;28;96710;-63
2021/11/06 14:17:44;;;;;;;;;4.00;2.50;;;;;21.73;24.94;99754.50;6202862;28;96882;-63
2021/11/06 14:20:53;;;;;;;;;3.00;3.00;;;;;21.57;25.25;99750.94;6192340;28;97967;-62
2021/11/06 14:24:05;;;;;;;;;5.00;4.00;;;;;21.15;25.87;99759.34;6194860;28;96676;-63
2021/11/06 14:27:12;;;;;;;;;4.00;4.00;;;;;20.86;26.03;99758.13;6192950;28;97335;-61
2021/11/06 14:30:18;;;;;;;;;3.00;3.00;;;;;20.48;26.49;99751.88;6204504;28;97492;-63
2021/11/06 14:33:30;;;;;;;;;3.20;3.20;;;;;20.17;27.53;99752.75;6195006;28;96583;-63
2021/11/06 14:36:34;;;;;;;;;3.25;3.25;;;;;19.92;26.99;99747.91;6197709;28;97315;-63
2021/11/06 14:39:40;;;;;;;;;3.00;3.00;;;;;19.60;28.05;99747.06;6204143;28;97681;-61
2021/11/06 14:42:44;;;;;;;;;3.00;3.00;;;;;19.39;27.83;99748.78;6196273;28;97228;-63
2021/11/06 14:45:57;;;;;;;;;4.00;4.00;;;;;19.20;28.50;99755.69;6208525;28;96520;-64
2021/11/06 14:49:00;;;;;;;;;3.80;3.00;;;;;19.00;28.32;99756.28;6215367;28;97519;-66
2021/11/06 14:52:06;;;;;;;;;4.00;4.00;;;;;18.72;28.74;99768.22;6177140;28;99662;-68
2021/11/06 14:55:12;;;;;;;;;7.00;6.00;;;;;18.28;29.28;99728.25;6168809;28;98335;-68
2021/11/06 14:58:16;;;;;;;;;4.00;4.00;;;;;18.35;29.24;99764.41;6214410;28;97561;-68
2021/11/06 15:01:21;;;;;;;;;5.00;4.00;;;;;18.15;29.65;99770.38;6193557;28;97987;-65
2021/11/06 15:04:40;;;;;;;;;5.40;4.00;;;;;17.94;30.07;99769.22;6214890;28;97428;-68
2021/11/06 15:07:46;;;;;;;;;4.00;4.00;;;;;17.83;30.12;99772.03;6212832;28;98046;-66
2021/11/06 15:10:52;;;;;;;;;5.00;5.00;;;;;17.65;30.89;99760.28;6214124;28;96591;-69
2021/11/06 15:13:56;;;;;;;;;6.00;5.00;;;;;17.50;30.86;99756.41;6197796;28;97054;-67
2021/11/06 15:17:01;;;;;;;;;5.00;5.00;;;;;17.36;31.29;99757.81;6215012;28;96687;-67
2021/11/06 15:20:05;;;;;;;;;4.25;4.00;;;;;17.23;31.34;99759.78;6215029;28;96587;-65
2021/11/06 15:23:10;;;;;;;;;5.20;5.00;;;;;17.07;31.71;99752.38;6196004;28;99783;-65
2021/11/06 15:26:13;;;;;;;;;5.00;5.00;;;;;16.97;31.86;99764.97;6176369;28;98320;-65
2021/11/06 15:29:20;;;;;;;;;5.00;5.00;;;;;16.83;32.31;99761.69;6195124;28;96673;-65
2021/11/06 15:32:24;;;;;;;;;7.00;6.00;;;;;16.65;32.61;99759.13;6203661;28;96981;-66
2021/11/06 15:35:28;;;;;;;;;9.00;8.00;;;;;16.45;33.04;99763.03;6210023;28;96876;-65
2021/11/06 15:38:32;;;;;;;;;8.60;8.00;;;;;16.31;33.18;99756.19;6195007;28;98362;-69
2021/11/06 15:41:35;;;;;;;;;6.00;6.00;;;;;16.09;33.23;99744.22;6194740;28;97162;-68
2021/11/06 15:44:38;;;;;;;;;6.00;5.75;;;;;16.14;33.65;99757.13;6213626;28;97648;-69
2021/11/06 15:47:43;;;;;;;;;9.00;7.40;;;;;15.99;33.76;99758.44;6191296;28;97393;-68
2021/11/06 15:50:50;;;;;;;;;6.00;6.00;;;;;15.90;34.06;99759.00;6194268;28;97408;-67
2021/11/06 15:53:53;;;;;;;;;6.00;6.00;;;;;15.74;33.90;99749.66;6214041;28;97410;-66
2021/11/06 15:56:59;;;;;;;;;7.00;6.33;;;;;15.70;34.50;99755.78;6192026;28;96776;-66
2021/11/06 16:00:05;;;;;;;;;10.80;10.00;;;;;15.62;34.58;99754.25;6180982;28;100104;-68
2021/11/06 16:03:09;;;;;;;;;12.25;11.25;;;;;15.51;35.10;99755.88;6209236;28;96557;-65
2021/11/06 16:06:12;;;;;;;;;17.00;15.00;;;;;15.41;35.09;99758.28;6213040;28;96667;-68
2021/11/06 16:09:16;;;;;;;;;12.00;11.20;;;;;15.35;35.03;99761.09;6213980;28;97397;-68
2021/11/06 16:12:19;;;;;;;;;12.00;11.00;;;;;15.28;35.42;99761.22;6213543;28;96506;-67